createdAt,value
2023-11-18T00:01:26.138Z,6.50
2023-11-18T00:03:56.626Z,6.50
2023-11-18T00:06:26.524Z,6.60
2023-11-18T00:08:56.229Z,6.60
2023-11-18T00:11:25.830Z,6.60
2023-11-18T00:13:58.333Z,6.60
2023-11-18T00:16:28.226Z,6.50
2023-11-18T00:18:57.947Z,6.50
2023-11-18T00:21:27.565Z,6.50
2023-11-18T00:23:57.233Z,6.40
2023-11-18T00:26:27.258Z,6.40
2023-11-18T00:29:00.647Z,6.30
2023-11-18T00:31:31.078Z,6.30
2023-11-18T00:34:00.781Z,6.30
2023-11-18T00:36:30.672Z,6.40
2023-11-18T00:39:00.584Z,6.40
2023-11-18T00:41:30.471Z,6.30
2023-11-18T00:44:02.694Z,6.20
2023-11-18T00:46:33.471Z,6.10
2023-11-18T00:49:03.529Z,6.00
2023-11-18T00:51:33.192Z,6.00
2023-11-18T00:54:04.463Z,5.90
2023-11-18T00:56:34.037Z,5.90
2023-11-18T00:59:07.865Z,6.10
2023-11-18T01:01:38.348Z,5.80
2023-11-18T01:04:08.201Z,5.80
2023-11-18T01:06:37.804Z,5.90
2023-11-18T01:09:08.444Z,5.90
2023-11-18T01:11:38.107Z,5.80
2023-11-18T01:14:10.427Z,5.90
2023-11-18T01:16:40.131Z,5.90
2023-11-18T01:19:10.426Z,5.90
2023-11-18T01:21:40.470Z,5.90
2023-11-18T01:24:10.828Z,5.90
2023-11-18T01:26:40.528Z,5.90
2023-11-18T01:29:12.777Z,5.90
2023-11-18T01:31:50.344Z,6.20
2023-11-18T01:34:23.240Z,5.90
2023-11-18T01:36:54.368Z,5.90
2023-11-18T01:39:24.133Z,5.90
2023-11-18T01:41:53.711Z,5.90
2023-11-18T01:44:25.861Z,5.80
2023-11-18T01:46:55.600Z,5.80
2023-11-18T01:49:25.461Z,5.80
2023-11-18T01:51:55.341Z,5.70
2023-11-18T01:54:25.289Z,5.70
2023-11-18T01:56:56.318Z,5.60
2023-11-18T01:59:31.227Z,5.60
2023-11-18T02:02:01.172Z,5.50
2023-11-18T02:04:31.486Z,5.50
2023-11-18T02:07:05.160Z,5.50
2023-11-18T02:09:36.173Z,5.40
2023-11-18T02:12:12.541Z,5.30
2023-11-18T02:14:44.940Z,5.30
2023-11-18T02:17:16.727Z,5.30
2023-11-18T02:19:46.467Z,5.30
2023-11-18T02:22:16.849Z,5.30
2023-11-18T02:24:46.775Z,5.50
2023-11-18T02:27:21.614Z,5.40
2023-11-18T02:29:52.595Z,5.50
2023-11-18T02:32:25.306Z,5.50
2023-11-18T02:34:58.711Z,5.40
2023-11-18T02:37:28.843Z,5.40
2023-11-18T02:40:05.101Z,5.40
2023-11-18T02:42:39.025Z,5.40
2023-11-18T02:45:13.682Z,5.50
2023-11-18T02:47:43.459Z,5.30
2023-11-18T02:50:15.038Z,5.30
2023-11-18T02:52:42.554Z,5.30
2023-11-18T02:55:12.614Z,5.20
2023-11-18T02:57:44.796Z,5.20
2023-11-18T03:00:19.943Z,5.30
2023-11-18T03:02:51.434Z,6.30
2023-11-18T03:05:22.061Z,5.20
2023-11-18T03:07:55.892Z,5.20
2023-11-18T03:10:34.801Z,5.20
2023-11-18T03:13:08.105Z,5.20
2023-11-18T03:15:37.979Z,5.20
2023-11-18T03:18:08.004Z,5.10
2023-11-18T03:20:38.093Z,5.00
2023-11-18T03:23:10.434Z,5.10
2023-11-18T03:25:41.487Z,5.20
2023-11-18T03:28:13.877Z,5.20
2023-11-18T03:30:43.749Z,5.20
2023-11-18T03:33:13.866Z,5.30
2023-11-18T03:35:43.752Z,5.20
2023-11-18T03:38:14.293Z,5.30
2023-11-18T03:40:46.363Z,5.20
2023-11-18T03:43:18.992Z,5.20
2023-11-18T03:45:48.806Z,5.30
2023-11-18T03:48:19.888Z,5.20
2023-11-18T03:50:49.665Z,5.20
2023-11-18T03:53:19.452Z,5.10
2023-11-18T03:55:49.412Z,5.20
2023-11-18T03:58:21.888Z,5.20
2023-11-18T04:00:51.701Z,5.20
2023-11-18T04:03:21.485Z,5.20
2023-11-18T04:05:51.439Z,5.20
2023-11-18T04:08:22.728Z,5.20
2023-11-18T04:10:52.540Z,5.30
2023-11-18T04:13:25.037Z,5.30
2023-11-18T04:15:54.922Z,5.30
2023-11-18T04:18:25.435Z,5.20
2023-11-18T04:20:55.329Z,5.30
2023-11-18T04:23:25.935Z,5.20
2023-11-18T04:25:56.022Z,5.20
2023-11-18T04:28:28.445Z,5.60
2023-11-18T04:30:58.273Z,5.30
2023-11-18T04:33:28.424Z,5.30
2023-11-18T04:35:58.544Z,5.30
2023-11-18T04:38:28.420Z,5.40
2023-11-18T04:40:58.589Z,5.40
2023-11-18T04:43:39.212Z,5.40
2023-11-18T04:46:14.922Z,5.40
2023-11-18T04:48:44.882Z,5.40
2023-11-18T04:51:15.523Z,5.40
2023-11-18T04:53:45.706Z,5.40
2023-11-18T04:56:18.015Z,5.40
2023-11-18T04:58:50.454Z,5.40
2023-11-18T05:01:20.393Z,5.40
2023-11-18T05:03:50.353Z,5.40
2023-11-18T05:06:21.356Z,5.40
2023-11-18T05:08:51.286Z,5.60
2023-11-18T05:11:21.672Z,5.60
2023-11-18T05:13:55.063Z,5.60
2023-11-18T05:16:24.839Z,5.60
2023-11-18T05:18:54.896Z,5.60
2023-11-18T05:21:24.757Z,5.70
2023-11-18T05:23:54.673Z,5.70
2023-11-18T05:26:24.570Z,5.70
2023-11-18T05:28:57.002Z,5.80
2023-11-18T05:31:26.810Z,5.80
2023-11-18T05:33:56.914Z,6.50
2023-11-18T05:36:38.531Z,6.90
2023-11-18T05:39:09.016Z,5.80
2023-11-18T05:41:41.195Z,5.80
2023-11-18T05:44:18.886Z,5.80
2023-11-18T05:46:49.186Z,5.90
2023-11-18T05:49:19.322Z,5.90
2023-11-18T05:51:49.199Z,5.90
2023-11-18T05:54:21.390Z,6.00
2023-11-18T05:56:51.625Z,6.00
2023-11-18T05:59:24.912Z,6.00
2023-11-18T06:01:54.882Z,6.00
2023-11-18T06:04:24.864Z,6.40
2023-11-18T06:06:54.796Z,6.20
2023-11-18T06:09:26.899Z,6.10
2023-11-18T06:11:57.448Z,6.20
2023-11-18T06:14:29.947Z,6.20
2023-11-18T06:17:00.926Z,6.20
2023-11-18T06:19:30.853Z,6.30
2023-11-18T06:22:00.701Z,7.30
2023-11-18T06:24:30.567Z,6.30
2023-11-18T06:27:01.004Z,6.40
2023-11-18T06:29:33.539Z,6.40
2023-11-18T06:32:03.328Z,6.40
2023-11-18T06:34:34.019Z,6.40
2023-11-18T06:37:05.191Z,6.40
2023-11-18T06:39:41.205Z,6.40
2023-11-18T06:42:12.932Z,6.40
2023-11-18T06:44:45.578Z,6.50
2023-11-18T06:47:15.615Z,6.50
2023-11-18T06:49:45.885Z,6.50
2023-11-18T06:52:15.748Z,6.50
2023-11-18T06:54:45.626Z,6.50
2023-11-18T06:57:15.976Z,6.50
2023-11-18T06:59:48.628Z,5.50
2023-11-18T07:02:19.092Z,6.60
2023-11-18T07:04:48.952Z,6.50
2023-11-18T07:07:18.857Z,7.30
2023-11-18T07:09:51.913Z,6.50
2023-11-18T07:12:22.649Z,6.60
2023-11-18T07:14:55.404Z,6.50
2023-11-18T07:17:25.404Z,6.60
2023-11-18T07:19:55.520Z,6.50
2023-11-18T07:22:26.404Z,6.50
2023-11-18T07:24:57.214Z,6.60
2023-11-18T07:27:27.928Z,6.60
2023-11-18T07:30:00.936Z,6.60
2023-11-18T07:32:31.365Z,6.60
2023-11-18T07:35:01.771Z,6.50
2023-11-18T07:37:34.190Z,6.60
2023-11-18T07:40:04.377Z,7.10
2023-11-18T07:42:35.528Z,7.30
2023-11-18T07:45:19.133Z,6.60
2023-11-18T07:47:50.133Z,6.60
2023-11-18T07:50:21.309Z,6.60
2023-11-18T07:52:52.109Z,6.60
2023-11-18T07:55:24.483Z,6.70
2023-11-18T07:57:54.196Z,6.60
2023-11-18T08:00:26.469Z,6.60
2023-11-18T08:02:56.418Z,6.70
2023-11-18T08:05:26.079Z,6.70
2023-11-18T08:07:55.747Z,6.70
2023-11-18T08:10:26.217Z,6.70
2023-11-18T08:12:55.992Z,6.70
2023-11-18T08:15:30.808Z,6.70
2023-11-18T08:18:00.873Z,6.70
2023-11-18T08:20:30.689Z,6.70
2023-11-18T08:23:00.534Z,6.70
2023-11-18T08:25:30.178Z,6.80
2023-11-18T08:27:59.853Z,6.80
2023-11-18T08:30:33.324Z,6.80
2023-11-18T08:33:06.626Z,6.80
2023-11-18T08:35:36.583Z,6.80
2023-11-18T08:38:08.928Z,6.80
2023-11-18T08:40:39.565Z,6.80
2023-11-18T08:43:09.387Z,6.90
2023-11-18T08:45:42.768Z,6.90
2023-11-18T08:48:12.546Z,6.90
2023-11-18T08:50:44.712Z,6.90
2023-11-18T08:53:14.458Z,6.90
2023-11-18T08:55:52.713Z,7.00
2023-11-18T08:58:29.714Z,7.00
2023-11-18T09:01:07.873Z,7.00
2023-11-18T09:03:44.474Z,7.00
2023-11-18T09:06:27.370Z,7.10
2023-11-18T09:08:59.932Z,7.30
2023-11-18T09:11:34.154Z,7.10
2023-11-18T09:14:05.666Z,7.10
2023-11-18T09:16:40.904Z,7.10
2023-11-18T09:19:10.655Z,7.10
2023-11-18T09:21:41.057Z,7.10
2023-11-18T09:24:14.109Z,7.10
2023-11-18T09:26:45.511Z,7.10
2023-11-18T09:29:19.245Z,7.20
2023-11-18T09:31:53.880Z,7.20
2023-11-18T09:34:28.699Z,7.20
2023-11-18T09:36:58.459Z,7.20
2023-11-18T09:39:40.995Z,7.90
2023-11-18T09:42:15.515Z,7.30
2023-11-18T09:44:45.258Z,7.30
2023-11-18T09:47:25.843Z,7.30
2023-11-18T09:50:00.998Z,7.30
2023-11-18T09:52:33.096Z,7.30
2023-11-18T09:55:06.100Z,7.60
2023-11-18T09:57:40.897Z,7.30
2023-11-18T10:00:28.081Z,7.30
2023-11-18T10:03:02.796Z,7.30
2023-11-18T10:05:33.112Z,7.30
2023-11-18T10:08:03.310Z,7.40
2023-11-18T10:10:38.147Z,7.30
2023-11-18T10:13:20.068Z,7.40
2023-11-18T10:15:53.608Z,7.40
2023-11-18T10:18:26.767Z,7.40
2023-11-18T10:20:56.428Z,7.40
2023-11-18T10:23:28.943Z,7.40
2023-11-18T10:26:01.704Z,7.40
2023-11-18T10:28:34.324Z,7.40
2023-11-18T10:31:07.031Z,7.50
2023-11-18T10:33:39.977Z,7.50
2023-11-18T10:36:23.802Z,7.50
2023-11-18T10:38:57.500Z,7.50
2023-11-18T10:41:27.674Z,7.60
2023-11-18T10:44:11.252Z,7.50
2023-11-18T10:46:41.638Z,7.50
2023-11-18T10:49:14.091Z,7.50
2023-11-18T10:51:43.916Z,7.50
2023-11-18T10:54:18.640Z,7.50
2023-11-18T10:56:51.459Z,7.60
2023-11-18T10:59:21.149Z,7.60
2023-11-18T13:51:14.171Z,7.60
2023-11-18T13:53:45.368Z,8.50
2023-11-18T13:56:16.995Z,7.30
2023-11-18T13:58:47.126Z,8.50
2023-11-18T14:01:17.789Z,8.60
2023-11-18T14:03:49.369Z,8.50
2023-11-18T14:06:27.536Z,8.50
2023-11-18T14:08:57.368Z,8.60
2023-11-18T14:11:28.356Z,8.60
2023-11-18T14:13:59.824Z,8.60
2023-11-18T14:16:29.595Z,8.90
2023-11-18T14:18:59.218Z,8.70
2023-11-18T14:21:33.171Z,8.70
2023-11-18T14:24:04.258Z,8.70
2023-11-18T14:26:32.128Z,8.70
2023-11-18T14:29:03.622Z,8.70
2023-11-18T14:31:33.300Z,9.00
2023-11-18T14:34:03.222Z,9.10
2023-11-18T14:36:36.522Z,8.70
2023-11-18T14:41:54.918Z,8.70
2023-11-18T14:44:24.644Z,9.00
2023-11-18T14:46:54.442Z,8.70
2023-11-18T14:49:24.098Z,9.20
2023-11-18T14:51:56.616Z,9.00
2023-11-18T14:54:26.251Z,8.70
2023-11-18T14:56:55.885Z,8.70
2023-11-18T14:59:25.628Z,8.80
2023-11-18T15:01:59.001Z,8.80
2023-11-18T15:04:30.051Z,8.80
2023-11-18T15:07:06.564Z,8.80
2023-11-18T15:09:36.878Z,8.70
2023-11-18T15:12:06.813Z,8.70
2023-11-18T15:14:37.593Z,8.70
2023-11-18T15:17:08.461Z,8.70
2023-11-18T15:19:38.326Z,9.00
2023-11-18T15:22:11.403Z,8.70
2023-11-18T15:24:40.985Z,8.70
2023-11-18T15:27:12.678Z,8.60
2023-11-18T15:29:50.602Z,8.60
2023-11-18T15:32:20.875Z,8.60
2023-11-18T15:34:50.509Z,8.50
2023-11-18T15:37:22.992Z,8.50
2023-11-18T15:39:53.364Z,8.70
2023-11-18T15:42:23.006Z,7.10
2023-11-18T15:44:57.123Z,8.80
2023-11-18T15:47:27.028Z,8.50
2023-11-18T15:50:01.869Z,8.40
2023-11-18T15:52:35.555Z,8.50
2023-11-18T15:55:11.184Z,8.50
2023-11-18T15:57:41.890Z,8.50
2023-11-18T16:00:18.148Z,8.50
2023-11-18T16:02:51.316Z,8.50
2023-11-18T16:05:22.497Z,8.50
2023-11-18T16:07:55.692Z,8.50
2023-11-18T16:10:26.050Z,8.70
2023-11-18T16:12:56.904Z,8.40
2023-11-18T16:15:27.488Z,8.40
2023-11-18T16:17:58.957Z,8.40
2023-11-18T16:20:29.377Z,8.40
2023-11-18T16:23:04.563Z,8.40
2023-11-18T16:25:36.884Z,8.40
2023-11-18T16:28:09.379Z,8.40
2023-11-18T16:30:40.270Z,8.30
2023-11-18T16:33:10.208Z,8.30
2023-11-18T16:35:40.745Z,8.30
2023-11-18T16:38:15.027Z,8.30
2023-11-18T16:40:45.511Z,8.20
2023-11-18T16:43:15.312Z,8.30
2023-11-18T16:45:45.529Z,8.30
2023-11-18T16:48:15.433Z,8.30
2023-11-18T16:50:45.147Z,8.20
2023-11-18T16:53:19.392Z,8.20
2023-11-18T16:55:49.669Z,8.20
